This is the latest recevied weather packets stored in our database for station/object 9W2CEW-1. If no packets are shown the sender has not sent any weather packets the latest 10 day(s).
| Time | Temp. | Humidity | Pressure | Rain* | Wind** | Luminosity | Snow |
|---|---|---|---|---|---|---|---|
| 1787649802 | 40° C | 39% | 1003.4 hPa | - | - | - | - |
| 1787648902 | 40° C | 38% | 1003.5 hPa | - | - | - | - |
| 1787648002 | 41.67° C | 36% | 1003.8 hPa | - | - | - | - |
| 1787647102 | 40° C | 39% | 1003.7 hPa | - | - | - | - |
| 1787646202 | 40° C | 40% | 1004 hPa | - | - | - | - |
| 1787645308 | 41.11° C | 39% | 1004.2 hPa | - | - | - | - |
| 1787644408 | 40.56° C | 40% | 1004.2 hPa | - | - | - | - |
| 1787643508 | 38.33° C | 46% | 1004.3 hPa | - | - | - | - |
| 1787642607 | 39.44° C | 44% | 1004.2 hPa | - | - | - | - |
| 1787641707 | 40° C | 44% | 1004.6 hPa | - | - | - | - |
| 1787640807 | 38.33° C | 46% | 1004.2 hPa | - | - | - | - |
| 1787640699 | 36.67° C | 50% | 1005.3 hPa | - | - | - | - |
| 1787639907 | 42.78° C | 39% | 1004.9 hPa | - | - | - | - |
| 1787639007 | 36.67° C | 50% | 1005.3 hPa | - | - | - | - |
| 1787638107 | 34.44° C | 58% | 1005.6 hPa | - | - | - | - |
| 1787637207 | 27.78° C | 85% | 1005.7 hPa | - | - | - | - |
| 1787636307 | 30.56° C | 62% | 1005.3 hPa | - | - | - | - |
| 1787635407 | 36.67° C | 46% | 1005.4 hPa | - | - | - | - |
| 1787634507 | 38.89° C | 40% | 1006 hPa | - | - | - | - |
| 1787633663 | 38.33° C | 42% | 1006.3 hPa | - | - | - | - |
| 1787633610 | 38.33° C | 42% | 1006.3 hPa | - | - | - | - |
| 1787632704 | 37.22° C | 43% | 1006.5 hPa | - | - | - | - |
| 1787631807 | 39.44° C | 39% | 1006.6 hPa | - | - | - | - |
| 1787630902 | 39.44° C | 39% | 1006.8 hPa | - | - | - | - |
| 1787630002 | 40.56° C | 39% | 1007 hPa | - | - | - | - |
* Rain since midnight (hover to see other rain measurements)
** Current wind speed in m/s (hover to see current wind gust speed)